createdAt,value
2023-02-16T00:00:24.029Z,0.62
2023-02-16T00:03:27.007Z,0.60
2023-02-16T00:06:29.620Z,0.61
2023-02-16T00:09:32.548Z,0.62
2023-02-16T00:12:54.068Z,0.61
2023-02-16T00:15:56.932Z,0.60
2023-02-16T00:18:59.528Z,0.53
2023-02-16T00:22:03.116Z,0.53
2023-02-16T00:25:05.936Z,0.45
2023-02-16T00:28:14.954Z,0.50
2023-02-16T00:31:22.864Z,0.49
2023-02-16T00:34:27.415Z,0.48
2023-02-16T00:37:29.979Z,0.48
2023-02-16T00:40:34.378Z,0.50
2023-02-16T00:43:37.292Z,0.52
2023-02-16T00:46:41.385Z,0.52
2023-02-16T00:49:44.366Z,0.56
2023-02-16T00:52:48.488Z,0.58
2023-02-16T00:55:51.266Z,0.55
2023-02-16T00:58:54.255Z,0.58
2023-02-16T01:01:57.639Z,0.64
2023-02-16T01:05:00.666Z,0.69
2023-02-16T01:08:24.368Z,0.70
2023-02-16T01:11:27.799Z,0.69
2023-02-16T01:14:32.707Z,0.74
2023-02-16T01:17:35.833Z,0.74
2023-02-16T01:20:38.411Z,0.72
2023-02-16T01:23:43.215Z,0.78
2023-02-16T01:26:48.412Z,0.81
2023-02-16T01:29:51.488Z,0.80
2023-02-16T01:32:54.341Z,0.80
2023-02-16T01:35:57.894Z,0.74
2023-02-16T01:39:01.298Z,0.76
2023-02-16T01:42:14.074Z,0.78
2023-02-16T01:45:20.526Z,0.80
2023-02-16T01:48:29.161Z,0.75
2023-02-16T01:51:39.689Z,0.73
2023-02-16T01:54:49.764Z,0.71
2023-02-16T01:57:56.695Z,0.72
2023-02-16T02:00:59.413Z,0.70
2023-02-16T02:04:22.227Z,0.68
2023-02-16T02:07:47.962Z,0.64
2023-02-16T02:10:52.263Z,0.61
2023-02-16T02:14:03.630Z,0.53
2023-02-16T02:17:09.806Z,0.49
2023-02-16T02:20:56.636Z,0.49
2023-02-16T02:24:24.933Z,0.55
2023-02-16T02:27:46.092Z,0.54
2023-02-16T02:31:03.575Z,0.57
2023-02-16T02:34:15.315Z,0.54
2023-02-16T02:37:43.795Z,0.46
2023-02-16T02:40:55.559Z,0.43
2023-02-16T02:44:04.999Z,0.41
2023-02-16T02:47:07.986Z,0.39
2023-02-16T02:50:39.008Z,0.36
2023-02-16T02:54:11.365Z,0.28
2023-02-16T02:57:37.222Z,0.23
2023-02-16T03:00:47.403Z,0.04
2023-02-16T03:03:54.890Z,0.02
2023-02-16T03:06:58.536Z,0.01
2023-02-16T03:10:21.404Z,-0.10
2023-02-16T03:13:39.187Z,-0.15
2023-02-16T03:16:50.555Z,-0.14
2023-02-16T03:20:12.188Z,-0.13
2023-02-16T03:23:33.975Z,-0.12
2023-02-16T03:26:55.993Z,-0.12
2023-02-16T03:30:00.273Z,-0.35
2023-02-16T03:33:03.281Z,-0.19
2023-02-16T03:36:07.335Z,-0.19
2023-02-16T03:39:11.379Z,-0.20
2023-02-16T03:42:15.162Z,-0.18
2023-02-16T03:45:19.165Z,-0.24
2023-02-16T03:48:22.474Z,-0.21
2023-02-16T03:51:25.228Z,-0.14
2023-02-16T03:54:28.169Z,-0.16
2023-02-16T03:57:30.724Z,-0.18
2023-02-16T04:00:34.606Z,-0.23
2023-02-16T04:03:37.866Z,-0.26
2023-02-16T04:06:40.570Z,-0.28
2023-02-16T04:09:43.380Z,-0.20
2023-02-16T04:12:45.997Z,-0.18
2023-02-16T04:15:48.987Z,-0.17
2023-02-16T04:18:51.598Z,-0.19
2023-02-16T04:21:54.500Z,-0.21
2023-02-16T04:24:57.184Z,-0.25
2023-02-16T04:28:00.007Z,-0.28
2023-02-16T04:31:03.236Z,-0.32
2023-02-16T04:34:06.328Z,-0.38
2023-02-16T04:37:08.944Z,-0.33
2023-02-16T04:40:16.161Z,-0.34
2023-02-16T04:43:18.745Z,-0.34
2023-02-16T04:46:21.755Z,-0.34
2023-02-16T04:49:24.446Z,-0.36
2023-02-16T04:52:27.808Z,-0.42
2023-02-16T04:55:31.005Z,-0.38
2023-02-16T04:58:34.329Z,-0.36
2023-02-16T05:01:37.121Z,-0.32
2023-02-16T05:04:40.205Z,-0.33
2023-02-16T05:07:42.739Z,-0.32
2023-02-16T05:10:45.603Z,-0.37
2023-02-16T05:14:07.127Z,-0.36
2023-02-16T05:17:15.968Z,-0.41
2023-02-16T05:20:18.555Z,-0.46
2023-02-16T05:23:21.413Z,-0.51
2023-02-16T05:26:24.003Z,-0.52
2023-02-16T05:29:26.844Z,-0.52
2023-02-16T05:32:29.677Z,-0.56
2023-02-16T05:35:34.177Z,-0.60
2023-02-16T05:38:37.462Z,-0.58
2023-02-16T05:41:40.622Z,-0.54
2023-02-16T05:44:43.154Z,-0.48
2023-02-16T05:47:47.284Z,-0.44
2023-02-16T05:50:49.882Z,-0.45
2023-02-16T05:53:52.881Z,-0.39
2023-02-16T05:56:55.761Z,-0.34
2023-02-16T05:59:58.770Z,-0.30
2023-02-16T06:03:01.542Z,-0.29
2023-02-16T06:06:05.600Z,-0.25
2023-02-16T06:09:09.025Z,-0.23
2023-02-16T06:12:11.907Z,-0.24
2023-02-16T06:15:14.478Z,-0.22
2023-02-16T06:18:17.441Z,-0.17
2023-02-16T06:21:22.272Z,-0.15
2023-02-16T06:24:25.163Z,-0.07
2023-02-16T06:27:28.847Z,-0.02
2023-02-16T06:30:31.820Z,0.04
2023-02-16T06:33:34.308Z,1.28
2023-02-16T06:36:37.141Z,1.06
2023-02-16T06:39:39.920Z,0.81
2023-02-16T06:42:43.230Z,0.69
2023-02-16T06:45:46.658Z,0.60
2023-02-16T06:48:49.496Z,0.51
2023-02-16T06:51:52.026Z,0.47
2023-02-16T06:54:54.975Z,0.44
2023-02-16T06:57:57.576Z,0.42
2023-02-16T07:01:02.139Z,1.53
2023-02-16T07:04:05.023Z,1.21
2023-02-16T07:07:07.910Z,1.11
2023-02-16T07:10:10.674Z,1.05
2023-02-16T07:13:13.550Z,1.02
2023-02-16T07:16:16.197Z,0.99
2023-02-16T07:19:19.362Z,1.15
2023-02-16T07:22:22.429Z,1.24
2023-02-16T07:25:26.316Z,1.33
2023-02-16T07:28:29.224Z,1.44
2023-02-16T07:31:32.279Z,2.26
2023-02-16T07:34:35.011Z,3.04
2023-02-16T07:37:37.841Z,2.43
2023-02-16T07:40:41.524Z,2.14
2023-02-16T07:43:44.350Z,2.06
2023-02-16T07:46:46.881Z,2.03
2023-02-16T07:49:50.795Z,2.04
2023-02-16T07:52:53.321Z,2.00
2023-02-16T07:55:57.089Z,2.14
2023-02-16T07:59:01.862Z,2.24
2023-02-16T08:02:04.692Z,2.42
2023-02-16T08:05:08.104Z,2.61
2023-02-16T08:08:10.716Z,2.80
2023-02-16T08:11:13.627Z,2.98
2023-02-16T08:14:16.516Z,2.58
2023-02-16T08:17:20.450Z,3.15
2023-02-16T08:20:45.057Z,3.36
2023-02-16T08:23:58.416Z,3.56
2023-02-16T08:27:03.866Z,3.80
2023-02-16T08:30:13.839Z,3.94
2023-02-16T08:33:16.440Z,4.18
2023-02-16T08:36:24.689Z,4.35
2023-02-16T08:39:30.772Z,4.52
2023-02-16T08:42:33.801Z,4.75
2023-02-16T08:45:36.357Z,4.96
2023-02-16T08:48:40.417Z,5.05
2023-02-16T08:51:46.455Z,5.23
2023-02-16T08:54:49.460Z,5.43
2023-02-16T08:57:52.068Z,5.61
2023-02-16T09:00:55.061Z,5.80
2023-02-16T09:03:58.950Z,6.04
2023-02-16T09:07:02.168Z,6.23
2023-02-16T09:10:06.125Z,6.48
2023-02-16T09:13:14.885Z,6.67
2023-02-16T09:16:25.205Z,6.81
2023-02-16T09:19:28.284Z,6.92
2023-02-16T09:22:31.675Z,7.15
2023-02-16T09:25:35.969Z,7.23
2023-02-16T09:28:40.200Z,7.38
2023-02-16T09:31:44.499Z,7.61
2023-02-16T09:34:50.136Z,7.67
2023-02-16T09:37:53.939Z,7.83
2023-02-16T09:40:57.051Z,8.05
2023-02-16T09:44:30.454Z,8.40
2023-02-16T09:47:35.769Z,8.59
2023-02-16T09:50:53.356Z,8.70
2023-02-16T09:54:02.172Z,9.07
2023-02-16T09:57:22.334Z,9.25
2023-02-16T10:00:33.980Z,9.27
2023-02-16T10:03:53.025Z,9.53
2023-02-16T10:07:16.866Z,9.91
2023-02-16T10:10:23.945Z,10.11
2023-02-16T10:13:40.742Z,10.03
2023-02-16T10:16:54.639Z,10.34
2023-02-16T10:20:02.828Z,10.73
2023-02-16T10:23:28.450Z,10.83
2023-02-16T10:26:41.970Z,11.15
2023-02-16T10:29:45.335Z,11.20
2023-02-16T10:33:01.960Z,11.44
2023-02-16T10:36:21.706Z,11.27
2023-02-16T10:39:42.538Z,11.72
2023-02-16T10:42:51.636Z,12.10
2023-02-16T10:45:59.640Z,12.32
2023-02-16T10:49:02.796Z,12.59
2023-02-16T10:52:07.930Z,12.46
2023-02-16T10:55:12.984Z,12.75
2023-02-16T10:58:26.473Z,12.91
2023-02-16T11:01:38.625Z,13.04
2023-02-16T11:04:43.387Z,13.11
2023-02-16T11:07:54.108Z,13.35
2023-02-16T11:10:56.730Z,13.53
2023-02-16T11:14:09.478Z,13.32
2023-02-16T11:17:13.803Z,13.76
2023-02-16T11:20:45.006Z,14.24
2023-02-16T11:23:59.665Z,13.95
2023-02-16T11:27:04.580Z,13.42
2023-02-16T11:30:23.421Z,14.10
2023-02-16T11:33:27.785Z,14.21
2023-02-16T11:36:43.858Z,13.98
2023-02-16T11:39:58.603Z,14.28
2023-02-16T11:43:02.167Z,14.41
2023-02-16T11:46:14.962Z,14.79
2023-02-16T11:49:22.456Z,14.73
2023-02-16T11:52:30.517Z,14.49
2023-02-16T11:55:33.475Z,14.77
2023-02-16T11:58:37.774Z,14.43
2023-02-16T12:02:08.670Z,14.21
2023-02-16T12:05:26.143Z,14.68
2023-02-16T12:08:56.287Z,14.65
2023-02-16T12:12:48.700Z,14.96
2023-02-16T12:16:18.901Z,14.54
2023-02-16T12:19:41.761Z,14.51
2023-02-16T12:22:44.249Z,14.73
2023-02-16T12:26:00.902Z,14.82
2023-02-16T12:29:24.622Z,15.03
2023-02-16T12:32:43.689Z,15.05
2023-02-16T12:35:53.619Z,15.12
2023-02-16T12:39:10.829Z,15.07
2023-02-16T12:42:31.481Z,15.50
2023-02-16T12:45:40.061Z,14.82
2023-02-16T12:48:51.231Z,14.41
2023-02-16T12:52:00.507Z,14.66
2023-02-16T12:55:38.286Z,13.85
2023-02-16T12:58:47.224Z,13.94
2023-02-16T13:01:52.921Z,13.66
2023-02-16T13:05:16.335Z,13.84
2023-02-16T13:08:39.683Z,13.86
2023-02-16T13:11:56.750Z,13.95
2023-02-16T13:15:09.169Z,14.11
2023-02-16T13:18:20.996Z,14.11
2023-02-16T13:21:51.260Z,13.72
2023-02-16T13:25:03.924Z,13.32
2023-02-16T13:28:24.519Z,13.33
2023-02-16T13:31:48.841Z,13.41
2023-02-16T13:35:37.671Z,12.73
2023-02-16T13:38:52.821Z,12.67
2023-02-16T13:42:29.862Z,12.58
2023-02-16T13:45:35.142Z,12.29
2023-02-16T13:48:49.802Z,11.75
2023-02-16T13:51:53.065Z,11.54
2023-02-16T13:54:55.977Z,11.17
2023-02-16T13:58:28.813Z,11.06
2023-02-16T14:01:31.974Z,10.61
2023-02-16T14:04:35.643Z,10.84
2023-02-16T14:07:38.396Z,10.83
2023-02-16T14:10:57.343Z,10.51
2023-02-16T14:14:00.537Z,10.43
2023-02-16T14:17:24.789Z,10.30
2023-02-16T14:20:29.884Z,10.24
2023-02-16T14:23:36.812Z,9.98
2023-02-16T14:27:06.340Z,9.75
2023-02-16T14:30:41.291Z,9.80
2023-02-16T14:33:51.221Z,9.71
2023-02-16T14:37:19.059Z,9.51
2023-02-16T14:41:08.945Z,9.42
2023-02-16T14:44:26.802Z,9.22
2023-02-16T14:47:58.608Z,9.06
2023-02-16T14:51:34.836Z,8.98
2023-02-16T14:54:56.535Z,8.82
2023-02-16T14:58:11.948Z,8.66
2023-02-16T15:01:17.553Z,8.62
2023-02-16T15:04:31.478Z,8.61
2023-02-16T15:07:35.220Z,8.53
2023-02-16T15:10:39.782Z,8.35
2023-02-16T15:13:43.932Z,8.32
2023-02-16T15:16:46.916Z,8.23
2023-02-16T15:19:49.792Z,8.12
2023-02-16T15:23:01.426Z,8.00
2023-02-16T15:26:16.697Z,7.86
2023-02-16T15:29:23.976Z,7.78
2023-02-16T15:32:26.907Z,7.87
2023-02-16T15:35:40.453Z,7.88
2023-02-16T15:38:54.802Z,7.80
2023-02-16T15:42:30.426Z,7.67
2023-02-16T15:45:43.737Z,7.53
2023-02-16T15:48:46.712Z,7.37
2023-02-16T15:51:49.630Z,7.32
2023-02-16T15:54:52.440Z,7.22
2023-02-16T15:57:56.111Z,7.11
2023-02-16T16:01:00.550Z,7.03
2023-02-16T16:04:24.861Z,6.91
2023-02-16T16:07:40.136Z,6.82
2023-02-16T16:10:44.284Z,6.73
2023-02-16T16:13:47.193Z,6.61
2023-02-16T16:16:50.554Z,6.40
2023-02-16T16:19:53.203Z,6.27
2023-02-16T16:22:57.698Z,6.15
2023-02-16T16:26:00.368Z,6.10
2023-02-16T16:29:03.995Z,6.09
2023-02-16T16:32:31.193Z,5.92
2023-02-16T16:35:49.690Z,5.75
2023-02-16T16:39:09.456Z,5.75
2023-02-16T16:42:18.385Z,5.28
2023-02-16T16:45:21.694Z,5.47
2023-02-16T16:48:28.878Z,5.46
2023-02-16T16:51:31.962Z,5.24
2023-02-16T16:54:39.797Z,5.13
2023-02-16T16:57:42.727Z,5.02
2023-02-16T17:00:45.764Z,4.88
2023-02-16T17:03:49.010Z,4.81
2023-02-16T17:06:52.157Z,5.56
2023-02-16T17:09:54.954Z,5.21
2023-02-16T17:12:59.360Z,5.10
2023-02-16T17:16:10.719Z,4.93
2023-02-16T17:19:15.702Z,4.76
2023-02-16T17:22:20.596Z,4.65
2023-02-16T17:25:23.501Z,4.66
2023-02-16T17:28:26.405Z,5.03
2023-02-16T17:31:29.525Z,4.74
2023-02-16T17:34:32.351Z,4.59
2023-02-16T17:37:35.660Z,4.42
2023-02-16T17:40:39.858Z,4.29
2023-02-16T17:43:43.504Z,4.19
2023-02-16T17:46:46.761Z,4.08
2023-02-16T17:49:50.348Z,3.99
2023-02-16T17:52:57.144Z,3.73
2023-02-16T17:56:00.208Z,3.81
2023-02-16T17:59:06.116Z,3.76
2023-02-16T18:02:12.718Z,3.63
2023-02-16T18:05:15.938Z,3.80
2023-02-16T18:08:18.708Z,3.78
2023-02-16T18:11:21.912Z,3.80
2023-02-16T18:14:24.731Z,3.69
2023-02-16T18:17:28.046Z,3.56
2023-02-16T18:20:30.806Z,3.48
2023-02-16T18:23:33.977Z,3.37
2023-02-16T18:26:39.296Z,3.40
2023-02-16T18:29:42.443Z,3.39
2023-02-16T18:32:45.662Z,3.28
2023-02-16T18:35:53.096Z,3.22
2023-02-16T18:38:56.070Z,3.05
2023-02-16T18:41:59.950Z,3.12
2023-02-16T18:45:03.103Z,3.18
2023-02-16T18:48:06.449Z,3.20
2023-02-16T18:51:10.819Z,3.18
2023-02-16T18:54:14.003Z,3.85
2023-02-16T18:57:17.323Z,3.52
2023-02-16T19:00:21.898Z,3.38
2023-02-16T19:03:24.881Z,3.36
2023-02-16T19:06:28.382Z,3.35
2023-02-16T19:09:31.430Z,3.36
2023-02-16T19:12:37.104Z,3.34
2023-02-16T19:15:40.028Z,3.36
2023-02-16T19:18:43.348Z,3.21
2023-02-16T19:21:46.296Z,3.37
2023-02-16T19:24:50.436Z,4.05
2023-02-16T19:27:53.314Z,3.73
2023-02-16T19:31:01.603Z,3.61
2023-02-16T19:34:04.640Z,3.52
2023-02-16T19:37:07.807Z,3.39
2023-02-16T19:40:11.523Z,3.28
2023-02-16T19:43:14.852Z,3.19
2023-02-16T19:46:19.114Z,3.06
2023-02-16T19:49:22.820Z,3.01
2023-02-16T19:52:26.032Z,2.99
2023-02-16T19:55:30.725Z,3.00
2023-02-16T19:58:34.176Z,3.04
2023-02-16T20:01:37.645Z,3.04
2023-02-16T20:04:41.909Z,3.01
2023-02-16T20:07:44.421Z,2.97
2023-02-16T20:10:47.723Z,2.95
2023-02-16T20:13:51.395Z,2.92
2023-02-16T20:16:54.729Z,2.94
2023-02-16T20:19:57.844Z,2.93
2023-02-16T20:23:01.435Z,3.44
2023-02-16T20:26:07.380Z,3.28
2023-02-16T20:29:13.061Z,3.11
2023-02-16T20:32:15.973Z,3.01
2023-02-16T20:35:19.278Z,2.89
2023-02-16T20:38:22.347Z,2.81
2023-02-16T20:41:25.333Z,2.75
2023-02-16T20:44:28.220Z,2.70
2023-02-16T20:47:31.644Z,2.61
2023-02-16T20:50:38.313Z,2.59
2023-02-16T20:53:42.402Z,2.55
2023-02-16T20:56:45.354Z,2.49
2023-02-16T20:59:48.349Z,2.47
2023-02-16T21:02:51.522Z,2.43
2023-02-16T21:05:55.057Z,2.42
2023-02-16T21:08:58.093Z,2.35
2023-02-16T21:12:01.241Z,2.35
2023-02-16T21:15:04.713Z,2.26
2023-02-16T21:18:08.093Z,2.23
2023-02-16T21:21:15.557Z,2.13
2023-02-16T21:24:19.007Z,1.94
2023-02-16T21:27:21.790Z,1.88
2023-02-16T21:30:25.206Z,1.96
2023-02-16T21:33:28.057Z,1.84
2023-02-16T21:36:31.265Z,1.80
2023-02-16T21:39:52.679Z,1.77
2023-02-16T21:42:55.562Z,1.78
2023-02-16T21:46:00.075Z,1.83
2023-02-16T21:49:05.470Z,1.86
2023-02-16T21:52:09.136Z,1.89
2023-02-16T21:55:31.032Z,1.95
2023-02-16T21:58:33.984Z,1.98
2023-02-16T22:01:46.015Z,1.99
2023-02-16T22:04:49.058Z,2.02
2023-02-16T22:07:51.939Z,2.00
2023-02-16T22:10:54.939Z,2.01
2023-02-16T22:13:59.402Z,2.03
2023-02-16T22:17:03.183Z,2.03
2023-02-16T22:20:06.358Z,1.99
2023-02-16T22:23:10.732Z,1.94
2023-02-16T22:26:33.431Z,1.88
2023-02-16T22:29:36.250Z,1.90
2023-02-16T22:32:38.925Z,1.95
2023-02-16T22:35:41.913Z,1.96
2023-02-16T22:38:44.824Z,1.97
2023-02-16T22:41:51.160Z,1.96
2023-02-16T22:44:53.788Z,1.89
2023-02-16T22:47:57.091Z,1.86
2023-02-16T22:51:01.049Z,1.86
2023-02-16T22:54:05.014Z,1.69
2023-02-16T22:57:07.752Z,1.86
2023-02-16T23:00:14.041Z,1.88
2023-02-16T23:03:17.524Z,1.89
2023-02-16T23:06:24.260Z,1.91
2023-02-16T23:09:27.041Z,1.89
2023-02-16T23:12:30.046Z,1.85
2023-02-16T23:15:35.204Z,1.87
2023-02-16T23:18:38.615Z,1.85
2023-02-16T23:21:42.137Z,1.82
2023-02-16T23:24:45.044Z,1.83
2023-02-16T23:27:47.720Z,1.78
2023-02-16T23:30:50.841Z,1.71
2023-02-16T23:33:56.066Z,1.64
2023-02-16T23:37:01.604Z,1.58
2023-02-16T23:40:04.775Z,1.52
2023-02-16T23:43:09.426Z,1.52
2023-02-16T23:46:12.297Z,1.42
2023-02-16T23:49:15.316Z,1.32
2023-02-16T23:52:18.415Z,1.26
2023-02-16T23:55:21.388Z,0.62
2023-02-16T23:58:29.673Z,1.10
